sensor_id;sensor_type;location;lat;lon;timestamp;temperature;humidity
11991;DHT22;6055;52.522;13.446;2022-10-26T00:00:45;11.40;99.90
11991;DHT22;6055;52.522;13.446;2022-10-26T00:03:11;11.40;99.90
11991;DHT22;6055;52.522;13.446;2022-10-26T00:05:37;11.40;99.90
11991;DHT22;6055;52.522;13.446;2022-10-26T00:08:03;11.40;99.90
11991;DHT22;6055;52.522;13.446;2022-10-26T00:10:28;11.40;99.90
11991;DHT22;6055;52.522;13.446;2022-10-26T00:12:54;11.40;99.90
11991;DHT22;6055;52.522;13.446;2022-10-26T00:15:20;11.40;99.90
11991;DHT22;6055;52.522;13.446;2022-10-26T00:17:46;11.40;99.90
11991;DHT22;6055;52.522;13.446;2022-10-26T00:20:13;11.40;99.90
11991;DHT22;6055;52.522;13.446;2022-10-26T00:22:39;11.30;99.90
11991;DHT22;6055;52.522;13.446;2022-10-26T00:25:05;11.30;99.90
11991;DHT22;6055;52.522;13.446;2022-10-26T00:27:31;11.30;99.90
11991;DHT22;6055;52.522;13.446;2022-10-26T00:30:08;11.30;99.90
11991;DHT22;6055;52.522;13.446;2022-10-26T00:32:33;11.30;99.90
11991;DHT22;6055;52.522;13.446;2022-10-26T00:34:59;11.30;99.90
11991;DHT22;6055;52.522;13.446;2022-10-26T00:37:25;11.20;99.90
11991;DHT22;6055;52.522;13.446;2022-10-26T00:39:50;11.20;99.90
11991;DHT22;6055;52.522;13.446;2022-10-26T00:42:19;11.20;99.90
11991;DHT22;6055;52.522;13.446;2022-10-26T00:49:55;11.10;99.90
11991;DHT22;6055;52.522;13.446;2022-10-26T00:52:22;11.10;99.90
11991;DHT22;6055;52.522;13.446;2022-10-26T00:54:48;11.10;99.90
11991;DHT22;6055;52.522;13.446;2022-10-26T00:57:14;11.10;99.90
11991;DHT22;6055;52.522;13.446;2022-10-26T00:59:42;11.10;99.90
11991;DHT22;6055;52.522;13.446;2022-10-26T01:02:09;11.00;99.90
11991;DHT22;6055;52.522;13.446;2022-10-26T01:04:35;11.10;99.90
11991;DHT22;6055;52.522;13.446;2022-10-26T01:07:02;11.10;99.90
11991;DHT22;6055;52.522;13.446;2022-10-26T01:09:28;11.10;99.90
11991;DHT22;6055;52.522;13.446;2022-10-26T01:11:54;11.10;99.90
11991;DHT22;6055;52.522;13.446;2022-10-26T01:14:20;11.10;99.90
11991;DHT22;6055;52.522;13.446;2022-10-26T01:16:50;11.10;99.90
11991;DHT22;6055;52.522;13.446;2022-10-26T01:27:35;11.00;99.90
11991;DHT22;6055;52.522;13.446;2022-10-26T01:41:42;10.90;99.90
11991;DHT22;6055;52.522;13.446;2022-10-26T01:44:16;10.90;99.90
11991;DHT22;6055;52.522;13.446;2022-10-26T01:46:44;10.90;99.90
11991;DHT22;6055;52.522;13.446;2022-10-26T01:49:12;10.90;99.90
11991;DHT22;6055;52.522;13.446;2022-10-26T01:51:42;10.80;99.90
11991;DHT22;6055;52.522;13.446;2022-10-26T01:54:08;10.80;99.90
11991;DHT22;6055;52.522;13.446;2022-10-26T01:56:40;10.80;99.90
11991;DHT22;6055;52.522;13.446;2022-10-26T01:59:34;10.80;99.90
11991;DHT22;6055;52.522;13.446;2022-10-26T02:10:41;10.70;99.90
11991;DHT22;6055;52.522;13.446;2022-10-26T02:13:15;10.70;99.90
11991;DHT22;6055;52.522;13.446;2022-10-26T02:18:30;10.70;99.90
11991;DHT22;6055;52.522;13.446;2022-10-26T02:21:06;10.70;99.90
11991;DHT22;6055;52.522;13.446;2022-10-26T02:23:35;10.70;99.90
11991;DHT22;6055;52.522;13.446;2022-10-26T02:26:02;10.60;99.90
11991;DHT22;6055;52.522;13.446;2022-10-26T02:28:35;10.60;99.90
11991;DHT22;6055;52.522;13.446;2022-10-26T02:31:03;10.60;99.90
11991;DHT22;6055;52.522;13.446;2022-10-26T02:33:32;10.60;99.90
11991;DHT22;6055;52.522;13.446;2022-10-26T02:36:03;10.50;99.90
11991;DHT22;6055;52.522;13.446;2022-10-26T02:38:31;10.50;99.90
11991;DHT22;6055;52.522;13.446;2022-10-26T02:40:58;10.50;99.90
11991;DHT22;6055;52.522;13.446;2022-10-26T02:43:26;10.50;99.90
11991;DHT22;6055;52.522;13.446;2022-10-26T02:46:06;10.50;99.90
11991;DHT22;6055;52.522;13.446;2022-10-26T02:48:32;10.50;99.90
11991;DHT22;6055;52.522;13.446;2022-10-26T02:54:13;10.40;99.90
11991;DHT22;6055;52.522;13.446;2022-10-26T02:56:47;10.40;99.90
11991;DHT22;6055;52.522;13.446;2022-10-26T02:59:18;10.40;99.90
11991;DHT22;6055;52.522;13.446;2022-10-26T03:01:45;10.40;99.90
11991;DHT22;6055;52.522;13.446;2022-10-26T03:04:10;10.40;99.90
11991;DHT22;6055;52.522;13.446;2022-10-26T03:06:36;10.30;99.90
11991;DHT22;6055;52.522;13.446;2022-10-26T03:09:02;10.30;99.90
11991;DHT22;6055;52.522;13.446;2022-10-26T03:11:27;10.30;99.90
11991;DHT22;6055;52.522;13.446;2022-10-26T03:13:53;10.30;99.90
11991;DHT22;6055;52.522;13.446;2022-10-26T03:16:19;10.30;99.90
11991;DHT22;6055;52.522;13.446;2022-10-26T03:18:44;10.30;99.90
11991;DHT22;6055;52.522;13.446;2022-10-26T03:21:13;10.30;99.90
11991;DHT22;6055;52.522;13.446;2022-10-26T03:23:38;10.30;99.90
11991;DHT22;6055;52.522;13.446;2022-10-26T03:26:04;10.30;99.90
11991;DHT22;6055;52.522;13.446;2022-10-26T03:28:30;10.30;99.90
11991;DHT22;6055;52.522;13.446;2022-10-26T03:30:55;10.30;99.90
11991;DHT22;6055;52.522;13.446;2022-10-26T03:33:21;10.30;99.90
11991;DHT22;6055;52.522;13.446;2022-10-26T03:35:53;10.30;99.90
11991;DHT22;6055;52.522;13.446;2022-10-26T03:38:19;10.20;99.90
11991;DHT22;6055;52.522;13.446;2022-10-26T03:40:44;10.20;99.90
11991;DHT22;6055;52.522;13.446;2022-10-26T03:43:12;10.20;99.90
11991;DHT22;6055;52.522;13.446;2022-10-26T03:45:38;10.20;99.90
11991;DHT22;6055;52.522;13.446;2022-10-26T03:48:04;10.20;99.90
11991;DHT22;6055;52.522;13.446;2022-10-26T03:50:29;10.20;99.90
11991;DHT22;6055;52.522;13.446;2022-10-26T03:52:55;10.20;99.90
11991;DHT22;6055;52.522;13.446;2022-10-26T03:55:20;10.20;99.90
11991;DHT22;6055;52.522;13.446;2022-10-26T03:57:46;10.20;99.90
11991;DHT22;6055;52.522;13.446;2022-10-26T04:00:13;10.20;99.90
11991;DHT22;6055;52.522;13.446;2022-10-26T04:02:43;10.20;99.90
11991;DHT22;6055;52.522;13.446;2022-10-26T04:05:11;10.20;99.90
11991;DHT22;6055;52.522;13.446;2022-10-26T04:07:36;10.20;99.90
11991;DHT22;6055;52.522;13.446;2022-10-26T04:10:04;10.20;99.90
11991;DHT22;6055;52.522;13.446;2022-10-26T04:12:29;10.20;99.90
11991;DHT22;6055;52.522;13.446;2022-10-26T04:14:55;10.10;99.90
11991;DHT22;6055;52.522;13.446;2022-10-26T04:17:23;10.10;99.90
11991;DHT22;6055;52.522;13.446;2022-10-26T04:19:49;10.10;99.90
11991;DHT22;6055;52.522;13.446;2022-10-26T04:22:15;10.10;99.90
11991;DHT22;6055;52.522;13.446;2022-10-26T04:24:40;10.10;99.90
11991;DHT22;6055;52.522;13.446;2022-10-26T04:27:06;10.10;99.90
11991;DHT22;6055;52.522;13.446;2022-10-26T04:29:31;10.10;99.90
11991;DHT22;6055;52.522;13.446;2022-10-26T04:31:57;10.10;99.90
11991;DHT22;6055;52.522;13.446;2022-10-26T04:34:22;10.00;99.90
11991;DHT22;6055;52.522;13.446;2022-10-26T04:36:48;10.00;99.90
11991;DHT22;6055;52.522;13.446;2022-10-26T04:39:14;10.00;99.90
11991;DHT22;6055;52.522;13.446;2022-10-26T04:41:39;10.00;99.90
11991;DHT22;6055;52.522;13.446;2022-10-26T04:44:05;10.00;99.90
11991;DHT22;6055;52.522;13.446;2022-10-26T04:46:31;9.90;99.90
11991;DHT22;6055;52.522;13.446;2022-10-26T04:48:56;9.90;99.90
11991;DHT22;6055;52.522;13.446;2022-10-26T04:51:22;10.00;99.90
11991;DHT22;6055;52.522;13.446;2022-10-26T04:53:47;9.90;99.90
11991;DHT22;6055;52.522;13.446;2022-10-26T04:56:13;9.90;99.90
11991;DHT22;6055;52.522;13.446;2022-10-26T04:58:38;9.90;99.90
11991;DHT22;6055;52.522;13.446;2022-10-26T05:01:04;9.90;99.90
11991;DHT22;6055;52.522;13.446;2022-10-26T05:03:30;9.90;99.90
11991;DHT22;6055;52.522;13.446;2022-10-26T05:05:57;9.90;99.90
11991;DHT22;6055;52.522;13.446;2022-10-26T05:08:25;9.90;99.90
11991;DHT22;6055;52.522;13.446;2022-10-26T05:10:51;9.90;99.90
11991;DHT22;6055;52.522;13.446;2022-10-26T05:13:19;9.90;99.90
11991;DHT22;6055;52.522;13.446;2022-10-26T05:15:44;9.90;99.90
11991;DHT22;6055;52.522;13.446;2022-10-26T05:18:10;9.80;99.90
11991;DHT22;6055;52.522;13.446;2022-10-26T05:20:36;9.80;99.90
11991;DHT22;6055;52.522;13.446;2022-10-26T05:23:06;9.80;99.90
11991;DHT22;6055;52.522;13.446;2022-10-26T05:25:34;9.80;99.90
11991;DHT22;6055;52.522;13.446;2022-10-26T05:28:02;9.80;99.90
11991;DHT22;6055;52.522;13.446;2022-10-26T05:30:29;9.80;99.90
11991;DHT22;6055;52.522;13.446;2022-10-26T05:33:00;9.80;99.90
11991;DHT22;6055;52.522;13.446;2022-10-26T05:35:27;9.70;99.90
11991;DHT22;6055;52.522;13.446;2022-10-26T05:37:53;9.70;99.90
11991;DHT22;6055;52.522;13.446;2022-10-26T05:40:19;9.70;99.90
11991;DHT22;6055;52.522;13.446;2022-10-26T05:42:45;9.70;99.90
11991;DHT22;6055;52.522;13.446;2022-10-26T05:45:11;9.70;99.90
11991;DHT22;6055;52.522;13.446;2022-10-26T05:47:41;9.70;99.90
11991;DHT22;6055;52.522;13.446;2022-10-26T05:50:08;9.70;99.90
11991;DHT22;6055;52.522;13.446;2022-10-26T05:52:38;9.70;99.90
11991;DHT22;6055;52.522;13.446;2022-10-26T05:55:06;9.70;99.90
11991;DHT22;6055;52.522;13.446;2022-10-26T05:57:32;9.70;99.90
11991;DHT22;6055;52.522;13.446;2022-10-26T05:59:58;9.60;99.90
11991;DHT22;6055;52.522;13.446;2022-10-26T06:02:35;9.60;99.90
11991;DHT22;6055;52.522;13.446;2022-10-26T06:05:04;9.60;99.90
11991;DHT22;6055;52.522;13.446;2022-10-26T06:07:30;9.60;99.90
11991;DHT22;6055;52.522;13.446;2022-10-26T06:09:58;9.60;99.90
11991;DHT22;6055;52.522;13.446;2022-10-26T06:12:24;9.60;99.90
11991;DHT22;6055;52.522;13.446;2022-10-26T06:14:51;9.60;99.90
11991;DHT22;6055;52.522;13.446;2022-10-26T06:17:36;9.60;99.90
11991;DHT22;6055;52.522;13.446;2022-10-26T06:23:19;9.60;99.90
11991;DHT22;6055;52.522;13.446;2022-10-26T06:31:22;9.70;99.90
11991;DHT22;6055;52.522;13.446;2022-10-26T06:33:47;9.60;99.90
11991;DHT22;6055;52.522;13.446;2022-10-26T06:36:24;9.60;99.90
11991;DHT22;6055;52.522;13.446;2022-10-26T06:39:03;9.60;99.90
11991;DHT22;6055;52.522;13.446;2022-10-26T06:41:34;9.60;99.90
11991;DHT22;6055;52.522;13.446;2022-10-26T06:44:01;9.70;99.90
11991;DHT22;6055;52.522;13.446;2022-10-26T06:46:35;9.70;99.90
11991;DHT22;6055;52.522;13.446;2022-10-26T06:49:15;9.70;99.90
11991;DHT22;6055;52.522;13.446;2022-10-26T06:51:50;9.70;99.90
11991;DHT22;6055;52.522;13.446;2022-10-26T06:54:28;9.70;99.90
11991;DHT22;6055;52.522;13.446;2022-10-26T06:56:56;9.70;99.90
11991;DHT22;6055;52.522;13.446;2022-10-26T06:59:31;9.80;99.90
11991;DHT22;6055;52.522;13.446;2022-10-26T07:01:59;9.70;99.90
11991;DHT22;6055;52.522;13.446;2022-10-26T07:04:25;9.80;99.90
11991;DHT22;6055;52.522;13.446;2022-10-26T07:06:50;9.80;99.90
11991;DHT22;6055;52.522;13.446;2022-10-26T07:09:16;9.80;99.90
11991;DHT22;6055;52.522;13.446;2022-10-26T07:11:41;9.80;99.90
11991;DHT22;6055;52.522;13.446;2022-10-26T07:14:07;9.80;99.90
11991;DHT22;6055;52.522;13.446;2022-10-26T07:16:33;9.90;99.90
11991;DHT22;6055;52.522;13.446;2022-10-26T07:18:58;9.90;99.90
11991;DHT22;6055;52.522;13.446;2022-10-26T07:21:24;9.90;99.90
11991;DHT22;6055;52.522;13.446;2022-10-26T07:23:49;9.90;99.90
11991;DHT22;6055;52.522;13.446;2022-10-26T07:26:16;10.00;99.90
11991;DHT22;6055;52.522;13.446;2022-10-26T07:28:42;10.00;99.90
11991;DHT22;6055;52.522;13.446;2022-10-26T07:31:08;10.10;99.90
11991;DHT22;6055;52.522;13.446;2022-10-26T07:33:33;10.10;99.90
11991;DHT22;6055;52.522;13.446;2022-10-26T07:35:59;10.20;99.90
11991;DHT22;6055;52.522;13.446;2022-10-26T07:38:24;10.20;99.90
11991;DHT22;6055;52.522;13.446;2022-10-26T07:40:50;10.20;99.90
11991;DHT22;6055;52.522;13.446;2022-10-26T07:43:18;10.20;99.90
11991;DHT22;6055;52.522;13.446;2022-10-26T07:45:48;10.30;99.90
11991;DHT22;6055;52.522;13.446;2022-10-26T07:48:14;10.30;99.90
11991;DHT22;6055;52.522;13.446;2022-10-26T07:50:39;10.30;99.90
11991;DHT22;6055;52.522;13.446;2022-10-26T07:53:05;10.30;99.90
11991;DHT22;6055;52.522;13.446;2022-10-26T07:55:31;10.40;99.90
11991;DHT22;6055;52.522;13.446;2022-10-26T07:57:56;10.40;99.90
11991;DHT22;6055;52.522;13.446;2022-10-26T08:00:22;10.50;99.90
11991;DHT22;6055;52.522;13.446;2022-10-26T08:02:47;10.50;99.90
11991;DHT22;6055;52.522;13.446;2022-10-26T08:05:13;10.50;99.90
11991;DHT22;6055;52.522;13.446;2022-10-26T08:07:43;10.60;99.90
11991;DHT22;6055;52.522;13.446;2022-10-26T08:10:09;10.60;99.90
11991;DHT22;6055;52.522;13.446;2022-10-26T08:12:35;10.60;99.90
11991;DHT22;6055;52.522;13.446;2022-10-26T08:15:01;10.60;99.90
11991;DHT22;6055;52.522;13.446;2022-10-26T08:17:28;10.70;99.90
11991;DHT22;6055;52.522;13.446;2022-10-26T08:19:53;10.70;99.90
11991;DHT22;6055;52.522;13.446;2022-10-26T08:22:19;10.70;99.90
11991;DHT22;6055;52.522;13.446;2022-10-26T08:24:45;10.70;99.90
11991;DHT22;6055;52.522;13.446;2022-10-26T08:27:12;10.80;99.90
11991;DHT22;6055;52.522;13.446;2022-10-26T08:29:39;10.80;99.90
11991;DHT22;6055;52.522;13.446;2022-10-26T08:32:04;10.90;99.90
11991;DHT22;6055;52.522;13.446;2022-10-26T08:34:30;10.90;99.90
11991;DHT22;6055;52.522;13.446;2022-10-26T08:36:56;10.90;99.90
11991;DHT22;6055;52.522;13.446;2022-10-26T08:39:21;10.90;99.90
11991;DHT22;6055;52.522;13.446;2022-10-26T08:41:48;11.00;99.90
11991;DHT22;6055;52.522;13.446;2022-10-26T08:44:28;11.00;99.90
11991;DHT22;6055;52.522;13.446;2022-10-26T08:47:06;11.00;99.90
11991;DHT22;6055;52.522;13.446;2022-10-26T08:50:07;11.00;99.90
11991;DHT22;6055;52.522;13.446;2022-10-26T08:52:54;11.10;99.90
11991;DHT22;6055;52.522;13.446;2022-10-26T08:55:36;11.10;99.90
11991;DHT22;6055;52.522;13.446;2022-10-26T08:58:07;11.10;99.90
11991;DHT22;6055;52.522;13.446;2022-10-26T09:00:37;11.20;99.90
11991;DHT22;6055;52.522;13.446;2022-10-26T09:03:12;11.20;99.90
11991;DHT22;6055;52.522;13.446;2022-10-26T09:08:36;11.30;99.90
11991;DHT22;6055;52.522;13.446;2022-10-26T09:16:10;11.40;99.90
11991;DHT22;6055;52.522;13.446;2022-10-26T09:24:29;11.60;99.90
11991;DHT22;6055;52.522;13.446;2022-10-26T09:29:39;11.70;99.90
11991;DHT22;6055;52.522;13.446;2022-10-26T09:32:12;11.70;99.90
11991;DHT22;6055;52.522;13.446;2022-10-26T09:34:46;11.80;99.90
11991;DHT22;6055;52.522;13.446;2022-10-26T09:37:19;11.80;99.90
11991;DHT22;6055;52.522;13.446;2022-10-26T09:39:55;11.90;99.90
11991;DHT22;6055;52.522;13.446;2022-10-26T09:45:40;12.00;99.90
11991;DHT22;6055;52.522;13.446;2022-10-26T09:48:13;12.10;99.90
11991;DHT22;6055;52.522;13.446;2022-10-26T09:50:44;12.10;99.90
11991;DHT22;6055;52.522;13.446;2022-10-26T09:53:11;12.20;99.90
11991;DHT22;6055;52.522;13.446;2022-10-26T09:55:45;12.30;99.90
11991;DHT22;6055;52.522;13.446;2022-10-26T09:58:26;12.30;99.90
11991;DHT22;6055;52.522;13.446;2022-10-26T10:00:53;12.40;99.90
11991;DHT22;6055;52.522;13.446;2022-10-26T10:03:23;12.40;99.90
11991;DHT22;6055;52.522;13.446;2022-10-26T10:05:49;12.50;99.90
11991;DHT22;6055;52.522;13.446;2022-10-26T10:08:23;12.60;99.90
11991;DHT22;6055;52.522;13.446;2022-10-26T10:11:11;12.70;99.90
11991;DHT22;6055;52.522;13.446;2022-10-26T10:13:42;12.80;99.90
11991;DHT22;6055;52.522;13.446;2022-10-26T10:16:13;13.00;99.90
11991;DHT22;6055;52.522;13.446;2022-10-26T10:18:52;13.00;99.90
11991;DHT22;6055;52.522;13.446;2022-10-26T10:21:18;13.10;99.90
11991;DHT22;6055;52.522;13.446;2022-10-26T10:23:51;13.20;99.90
11991;DHT22;6055;52.522;13.446;2022-10-26T10:26:17;13.30;99.90
11991;DHT22;6055;52.522;13.446;2022-10-26T10:28:58;13.40;99.90
11991;DHT22;6055;52.522;13.446;2022-10-26T10:31:29;13.50;99.90
11991;DHT22;6055;52.522;13.446;2022-10-26T10:33:55;13.60;99.90
11991;DHT22;6055;52.522;13.446;2022-10-26T10:36:23;13.80;99.90
11991;DHT22;6055;52.522;13.446;2022-10-26T10:38:51;13.80;99.90
11991;DHT22;6055;52.522;13.446;2022-10-26T10:41:29;13.90;99.90
11991;DHT22;6055;52.522;13.446;2022-10-26T10:44:26;14.00;99.90
11991;DHT22;6055;52.522;13.446;2022-10-26T10:47:29;14.20;99.90
11991;DHT22;6055;52.522;13.446;2022-10-26T10:50:31;14.20;99.90
11991;DHT22;6055;52.522;13.446;2022-10-26T10:52:50;14.30;99.90
11991;DHT22;6055;52.522;13.446;2022-10-26T10:55:20;14.50;99.90
11991;DHT22;6055;52.522;13.446;2022-10-26T10:58:17;14.60;99.90
11991;DHT22;6055;52.522;13.446;2022-10-26T11:00:47;14.60;99.90
11991;DHT22;6055;52.522;13.446;2022-10-26T11:03:41;14.70;99.90
11991;DHT22;6055;52.522;13.446;2022-10-26T11:06:20;14.70;99.90
11991;DHT22;6055;52.522;13.446;2022-10-26T11:08:54;14.80;99.90
11991;DHT22;6055;52.522;13.446;2022-10-26T11:11:26;14.80;99.90
11991;DHT22;6055;52.522;13.446;2022-10-26T11:14:13;14.80;99.90
11991;DHT22;6055;52.522;13.446;2022-10-26T11:16:45;14.80;99.90
11991;DHT22;6055;52.522;13.446;2022-10-26T11:19:25;14.90;99.90
11991;DHT22;6055;52.522;13.446;2022-10-26T11:21:54;14.90;99.90
11991;DHT22;6055;52.522;13.446;2022-10-26T11:27:07;15.00;99.90
11991;DHT22;6055;52.522;13.446;2022-10-26T11:29:38;15.10;99.90
11991;DHT22;6055;52.522;13.446;2022-10-26T11:41:35;15.30;99.90
11991;DHT22;6055;52.522;13.446;2022-10-26T11:43:48;15.30;99.90
11991;DHT22;6055;52.522;13.446;2022-10-26T11:46:44;15.40;99.90
11991;DHT22;6055;52.522;13.446;2022-10-26T11:49:37;15.40;99.90
11991;DHT22;6055;52.522;13.446;2022-10-26T11:52:23;15.50;99.90
11991;DHT22;6055;52.522;13.446;2022-10-26T11:55:10;15.50;99.90
11991;DHT22;6055;52.522;13.446;2022-10-26T11:57:40;15.50;99.90
11991;DHT22;6055;52.522;13.446;2022-10-26T12:00:17;15.50;99.90
11991;DHT22;6055;52.522;13.446;2022-10-26T12:02:56;15.60;99.90
11991;DHT22;6055;52.522;13.446;2022-10-26T12:08:03;15.70;99.90
11991;DHT22;6055;52.522;13.446;2022-10-26T12:10:35;15.80;99.90
11991;DHT22;6055;52.522;13.446;2022-10-26T12:13:26;15.80;99.90
11991;DHT22;6055;52.522;13.446;2022-10-26T12:18:51;16.00;99.90
11991;DHT22;6055;52.522;13.446;2022-10-26T12:21:19;16.00;99.90
11991;DHT22;6055;52.522;13.446;2022-10-26T12:23:54;16.20;99.90
11991;DHT22;6055;52.522;13.446;2022-10-26T12:29:12;17.20;99.90
11991;DHT22;6055;52.522;13.446;2022-10-26T12:34:12;20.10;99.90
11991;DHT22;6055;52.522;13.446;2022-10-26T12:39:36;22.50;99.90
11991;DHT22;6055;52.522;13.446;2022-10-26T12:52:52;24.50;90.50
11991;DHT22;6055;52.522;13.446;2022-10-26T13:00:50;24.40;90.60
11991;DHT22;6055;52.522;13.446;2022-10-26T13:06:26;24.20;90.30
11991;DHT22;6055;52.522;13.446;2022-10-26T13:08:56;24.20;90.60
11991;DHT22;6055;52.522;13.446;2022-10-26T13:11:31;24.40;90.10
11991;DHT22;6055;52.522;13.446;2022-10-26T13:14:00;24.30;89.70
11991;DHT22;6055;52.522;13.446;2022-10-26T13:16:27;24.20;90.40
11991;DHT22;6055;52.522;13.446;2022-10-26T13:18:54;24.10;90.90
11991;DHT22;6055;52.522;13.446;2022-10-26T13:21:22;23.90;91.10
11991;DHT22;6055;52.522;13.446;2022-10-26T13:26:23;23.60;91.70
11991;DHT22;6055;52.522;13.446;2022-10-26T13:29:00;23.70;91.50
11991;DHT22;6055;52.522;13.446;2022-10-26T13:34:01;23.40;92.40
11991;DHT22;6055;52.522;13.446;2022-10-26T13:42:04;22.80;94.10
11991;DHT22;6055;52.522;13.446;2022-10-26T13:44:51;22.70;95.10
11991;DHT22;6055;52.522;13.446;2022-10-26T13:47:30;22.50;95.80
11991;DHT22;6055;52.522;13.446;2022-10-26T13:50:06;22.50;96.40
11991;DHT22;6055;52.522;13.446;2022-10-26T13:52:44;22.40;96.60
11991;DHT22;6055;52.522;13.446;2022-10-26T13:55:19;22.60;97.30
11991;DHT22;6055;52.522;13.446;2022-10-26T14:03:36;24.00;93.50
11991;DHT22;6055;52.522;13.446;2022-10-26T14:08:44;24.80;90.90
11991;DHT22;6055;52.522;13.446;2022-10-26T14:11:13;24.90;90.30
11991;DHT22;6055;52.522;13.446;2022-10-26T14:13:40;25.00;90.20
11991;DHT22;6055;52.522;13.446;2022-10-26T14:16:09;25.10;88.30
11991;DHT22;6055;52.522;13.446;2022-10-26T14:18:36;25.10;89.60
11991;DHT22;6055;52.522;13.446;2022-10-26T14:21:11;24.80;89.10
11991;DHT22;6055;52.522;13.446;2022-10-26T14:23:58;24.80;90.40
11991;DHT22;6055;52.522;13.446;2022-10-26T14:26:40;24.70;90.10
11991;DHT22;6055;52.522;13.446;2022-10-26T14:29:32;24.30;90.60
11991;DHT22;6055;52.522;13.446;2022-10-26T14:32:19;23.80;92.60
11991;DHT22;6055;52.522;13.446;2022-10-26T14:34:45;23.20;94.70
11991;DHT22;6055;52.522;13.446;2022-10-26T14:37:22;22.80;96.50
11991;DHT22;6055;52.522;13.446;2022-10-26T14:39:50;22.40;97.70
11991;DHT22;6055;52.522;13.446;2022-10-26T14:42:34;21.70;99.50
11991;DHT22;6055;52.522;13.446;2022-10-26T14:45:02;20.90;99.90
11991;DHT22;6055;52.522;13.446;2022-10-26T14:47:32;20.20;99.90
11991;DHT22;6055;52.522;13.446;2022-10-26T14:49:59;19.60;99.90
11991;DHT22;6055;52.522;13.446;2022-10-26T14:52:29;19.10;99.90
11991;DHT22;6055;52.522;13.446;2022-10-26T14:55:13;18.60;99.90
11991;DHT22;6055;52.522;13.446;2022-10-26T14:57:42;18.20;99.90
11991;DHT22;6055;52.522;13.446;2022-10-26T15:00:23;17.90;99.90
11991;DHT22;6055;52.522;13.446;2022-10-26T15:02:54;17.60;99.90
11991;DHT22;6055;52.522;13.446;2022-10-26T15:07:49;17.20;99.90
11991;DHT22;6055;52.522;13.446;2022-10-26T15:13:13;17.00;99.90
11991;DHT22;6055;52.522;13.446;2022-10-26T15:15:43;17.00;99.90
11991;DHT22;6055;52.522;13.446;2022-10-26T15:18:27;17.00;99.90
11991;DHT22;6055;52.522;13.446;2022-10-26T15:20:54;17.00;99.90
11991;DHT22;6055;52.522;13.446;2022-10-26T15:23:21;17.00;99.90
11991;DHT22;6055;52.522;13.446;2022-10-26T15:25:59;16.90;99.90
11991;DHT22;6055;52.522;13.446;2022-10-26T15:33:24;16.60;99.90
11991;DHT22;6055;52.522;13.446;2022-10-26T15:36:12;16.50;99.90
11991;DHT22;6055;52.522;13.446;2022-10-26T15:38:42;16.40;99.90
11991;DHT22;6055;52.522;13.446;2022-10-26T15:43:43;16.30;99.90
11991;DHT22;6055;52.522;13.446;2022-10-26T15:46:11;16.20;99.90
11991;DHT22;6055;52.522;13.446;2022-10-26T15:48:36;16.10;99.90
11991;DHT22;6055;52.522;13.446;2022-10-26T15:51:04;16.00;99.90
11991;DHT22;6055;52.522;13.446;2022-10-26T15:56:32;15.90;99.90
11991;DHT22;6055;52.522;13.446;2022-10-26T15:58:58;15.70;99.90
11991;DHT22;6055;52.522;13.446;2022-10-26T16:01:25;15.60;99.90
11991;DHT22;6055;52.522;13.446;2022-10-26T16:03:52;15.60;99.90
11991;DHT22;6055;52.522;13.446;2022-10-26T16:06:23;15.50;99.90
11991;DHT22;6055;52.522;13.446;2022-10-26T16:08:56;15.50;99.90
11991;DHT22;6055;52.522;13.446;2022-10-26T16:11:22;15.50;99.90
11991;DHT22;6055;52.522;13.446;2022-10-26T16:13:48;15.40;99.90
11991;DHT22;6055;52.522;13.446;2022-10-26T16:16:16;15.40;99.90
11991;DHT22;6055;52.522;13.446;2022-10-26T16:18:44;15.40;99.90
11991;DHT22;6055;52.522;13.446;2022-10-26T16:21:11;15.30;99.90
11991;DHT22;6055;52.522;13.446;2022-10-26T16:23:37;15.30;99.90
11991;DHT22;6055;52.522;13.446;2022-10-26T16:26:03;15.30;99.90
11991;DHT22;6055;52.522;13.446;2022-10-26T16:28:29;15.30;99.90
11991;DHT22;6055;52.522;13.446;2022-10-26T16:31:02;15.30;99.90
11991;DHT22;6055;52.522;13.446;2022-10-26T16:33:28;15.20;99.90
11991;DHT22;6055;52.522;13.446;2022-10-26T16:35:55;15.20;99.90
11991;DHT22;6055;52.522;13.446;2022-10-26T16:38:21;15.20;99.90
11991;DHT22;6055;52.522;13.446;2022-10-26T16:40:47;15.30;99.90
11991;DHT22;6055;52.522;13.446;2022-10-26T16:43:12;15.30;99.90
11991;DHT22;6055;52.522;13.446;2022-10-26T16:45:39;15.30;99.90
11991;DHT22;6055;52.522;13.446;2022-10-26T16:48:07;15.30;99.90
11991;DHT22;6055;52.522;13.446;2022-10-26T16:50:38;15.30;99.90
11991;DHT22;6055;52.522;13.446;2022-10-26T16:53:04;15.20;99.90
11991;DHT22;6055;52.522;13.446;2022-10-26T16:55:30;15.20;99.90
11991;DHT22;6055;52.522;13.446;2022-10-26T16:57:55;15.20;99.90
11991;DHT22;6055;52.522;13.446;2022-10-26T17:00:21;15.20;99.90
11991;DHT22;6055;52.522;13.446;2022-10-26T17:02:46;15.20;99.90
11991;DHT22;6055;52.522;13.446;2022-10-26T17:05:12;15.20;99.90
11991;DHT22;6055;52.522;13.446;2022-10-26T17:07:38;15.10;99.90
11991;DHT22;6055;52.522;13.446;2022-10-26T17:10:04;15.10;99.90
11991;DHT22;6055;52.522;13.446;2022-10-26T17:12:29;15.10;99.90
11991;DHT22;6055;52.522;13.446;2022-10-26T17:14:55;15.10;99.90
11991;DHT22;6055;52.522;13.446;2022-10-26T17:17:22;15.10;99.90
11991;DHT22;6055;52.522;13.446;2022-10-26T17:19:48;15.10;99.90
11991;DHT22;6055;52.522;13.446;2022-10-26T17:22:14;15.10;99.90
11991;DHT22;6055;52.522;13.446;2022-10-26T17:24:39;15.10;99.90
11991;DHT22;6055;52.522;13.446;2022-10-26T17:27:05;15.10;99.90
11991;DHT22;6055;52.522;13.446;2022-10-26T17:29:31;15.10;99.90
11991;DHT22;6055;52.522;13.446;2022-10-26T17:31:56;15.10;99.90
11991;DHT22;6055;52.522;13.446;2022-10-26T17:34:22;15.10;99.90
11991;DHT22;6055;52.522;13.446;2022-10-26T17:36:47;15.10;99.90
11991;DHT22;6055;52.522;13.446;2022-10-26T17:39:13;15.10;99.90
11991;DHT22;6055;52.522;13.446;2022-10-26T17:41:39;15.00;99.90
11991;DHT22;6055;52.522;13.446;2022-10-26T17:44:05;15.10;99.90
11991;DHT22;6055;52.522;13.446;2022-10-26T17:46:31;15.10;99.90
11991;DHT22;6055;52.522;13.446;2022-10-26T17:48:58;15.00;99.90
11991;DHT22;6055;52.522;13.446;2022-10-26T17:51:25;15.10;99.90
11991;DHT22;6055;52.522;13.446;2022-10-26T17:53:51;15.10;99.90
11991;DHT22;6055;52.522;13.446;2022-10-26T17:56:22;15.00;99.90
11991;DHT22;6055;52.522;13.446;2022-10-26T17:58:52;15.00;99.90
11991;DHT22;6055;52.522;13.446;2022-10-26T18:01:18;15.10;99.90
11991;DHT22;6055;52.522;13.446;2022-10-26T18:03:44;15.10;99.90
11991;DHT22;6055;52.522;13.446;2022-10-26T18:06:09;15.10;99.90
11991;DHT22;6055;52.522;13.446;2022-10-26T18:08:36;15.10;99.90
11991;DHT22;6055;52.522;13.446;2022-10-26T18:11:04;15.00;99.90
11991;DHT22;6055;52.522;13.446;2022-10-26T18:13:31;15.10;99.90
11991;DHT22;6055;52.522;13.446;2022-10-26T18:16:09;15.10;99.90